createdAt,value
2023-05-23T00:03:59.623Z,12.00
2023-05-23T00:09:07.087Z,12.00
2023-05-23T00:14:15.079Z,11.80
2023-05-23T00:19:22.060Z,16.00
2023-05-23T00:24:29.203Z,10.50
2023-05-23T00:29:36.206Z,11.30
2023-05-23T00:34:43.514Z,13.50
2023-05-23T00:39:50.714Z,16.90
2023-05-23T00:44:58.003Z,13.30
2023-05-23T00:50:05.068Z,15.10
2023-05-23T00:55:13.196Z,15.30
2023-05-23T01:00:21.057Z,15.50
2023-05-23T01:05:28.270Z,16.10
2023-05-23T01:10:35.448Z,14.20
2023-05-23T01:15:50.109Z,12.90
2023-05-23T01:21:01.672Z,17.10
2023-05-23T01:31:23.742Z,12.00
2023-05-23T01:36:35.454Z,13.70
2023-05-23T01:41:42.534Z,13.80
2023-05-23T01:46:50.022Z,14.40
2023-05-23T01:51:57.184Z,15.50
2023-05-23T01:57:06.059Z,15.20
2023-05-23T02:02:13.520Z,17.20
2023-05-23T02:07:23.622Z,13.90
2023-05-23T02:12:30.807Z,12.80
2023-05-23T02:17:41.589Z,15.60
2023-05-23T02:22:49.365Z,15.50
2023-05-23T02:27:56.331Z,14.20
2023-05-23T02:33:08.135Z,20.30
2023-05-23T02:38:15.604Z,17.80
2023-05-23T02:43:22.745Z,15.90
2023-05-23T02:48:29.872Z,14.60
2023-05-23T02:53:36.955Z,14.90
2023-05-23T02:58:43.965Z,15.80
2023-05-23T03:03:51.247Z,15.90
2023-05-23T03:08:58.337Z,15.90
2023-05-23T03:14:06.086Z,16.80
2023-05-23T03:19:13.255Z,23.70
2023-05-23T03:24:20.355Z,18.00
2023-05-23T03:29:30.181Z,20.20
2023-05-23T03:34:38.902Z,19.50
2023-05-23T03:39:46.545Z,19.80
2023-05-23T03:44:53.600Z,25.20
2023-05-23T03:50:02.173Z,29.80
2023-05-23T03:55:11.539Z,17.80
2023-05-23T04:00:20.178Z,18.30
2023-05-23T04:05:29.925Z,19.60
2023-05-23T04:10:37.307Z,19.10
2023-05-23T04:15:45.395Z,27.00
2023-05-23T04:20:53.379Z,19.00
2023-05-23T04:26:01.166Z,16.60
2023-05-23T04:31:13.944Z,17.60
2023-05-23T04:36:23.823Z,16.50
2023-05-23T04:41:34.353Z,17.40
2023-05-23T04:46:45.776Z,16.20
2023-05-23T04:52:07.588Z,20.00
2023-05-23T04:57:38.004Z,15.80
2023-05-23T05:02:46.579Z,19.10
2023-05-23T05:07:53.728Z,15.80
2023-05-23T05:13:00.755Z,17.50
2023-05-23T05:18:14.837Z,16.50
2023-05-23T05:23:24.074Z,17.80
2023-05-23T05:28:31.138Z,17.00
2023-05-23T05:33:39.516Z,22.30
2023-05-23T05:38:49.558Z,14.50
2023-05-23T05:43:58.451Z,12.30
2023-05-23T05:49:05.453Z,26.20
2023-05-23T05:54:12.561Z,12.80
2023-05-23T05:59:19.510Z,18.10
2023-05-23T06:04:26.973Z,16.80
2023-05-23T06:09:35.330Z,11.80
2023-05-23T06:14:42.909Z,15.90
2023-05-23T06:19:50.800Z,11.50
2023-05-23T06:24:59.375Z,16.50
2023-05-23T06:30:08.303Z,14.90
2023-05-23T06:35:15.453Z,18.10
2023-05-23T06:40:22.978Z,16.20
2023-05-23T06:46:01.580Z,17.40
2023-05-23T06:51:13.709Z,13.20
2023-05-23T06:56:22.780Z,16.60
2023-05-23T07:01:54.835Z,17.80
2023-05-23T07:07:09.387Z,14.40
2023-05-23T07:12:26.046Z,19.90
2023-05-23T07:17:36.418Z,12.90
2023-05-23T07:22:43.966Z,14.60
2023-05-23T07:28:09.675Z,16.40
2023-05-23T07:33:16.977Z,19.90
2023-05-23T07:39:02.459Z,14.00
2023-05-23T07:44:25.817Z,12.20
2023-05-23T07:49:45.957Z,11.10
2023-05-23T07:54:54.100Z,12.70
2023-05-23T08:00:02.180Z,12.20
2023-05-23T08:05:11.540Z,10.80
2023-05-23T08:10:19.794Z,12.30
2023-05-23T08:15:27.165Z,13.40
2023-05-23T08:20:43.570Z,15.30
2023-05-23T08:25:51.006Z,16.90
2023-05-23T08:31:00.947Z,12.20
2023-05-23T08:36:10.038Z,10.30
2023-05-23T08:41:20.379Z,13.00
2023-05-23T08:46:28.624Z,14.00
2023-05-23T08:51:39.438Z,9.10
2023-05-23T08:56:52.672Z,11.70
2023-05-23T09:02:01.605Z,11.00
2023-05-23T09:07:09.611Z,8.20
2023-05-23T09:12:17.636Z,12.60
2023-05-23T09:17:26.997Z,11.20
2023-05-23T09:22:34.260Z,14.10
2023-05-23T09:27:48.114Z,12.80
2023-05-23T09:33:05.590Z,14.00
2023-05-23T09:38:13.897Z,14.10
2023-05-23T09:43:23.586Z,14.50
2023-05-23T09:48:33.385Z,11.20
2023-05-23T09:53:40.323Z,13.50
2023-05-23T09:58:51.220Z,14.10
2023-05-23T10:04:00.322Z,13.00
2023-05-23T10:09:10.136Z,14.10
2023-05-23T10:14:17.356Z,15.20
2023-05-23T10:19:28.569Z,15.60
2023-05-23T10:24:36.956Z,19.50
2023-05-23T10:29:44.466Z,18.90
2023-05-23T10:34:59.040Z,17.40
2023-05-23T10:40:13.689Z,13.20
2023-05-23T10:45:22.331Z,11.40
2023-05-23T10:50:37.364Z,12.70
2023-05-23T10:55:50.018Z,12.30
2023-05-23T11:00:58.368Z,12.30
2023-05-23T11:06:06.407Z,24.20
2023-05-23T11:11:13.629Z,16.30
2023-05-23T11:16:41.708Z,20.90
2023-05-23T11:21:50.855Z,17.80
2023-05-23T11:27:01.353Z,22.40
2023-05-23T11:32:16.936Z,24.00
2023-05-23T11:37:27.194Z,26.10
2023-05-23T11:42:34.615Z,18.40
2023-05-23T11:47:44.797Z,13.80
2023-05-23T11:52:52.594Z,17.00
2023-05-23T11:58:00.141Z,15.50
2023-05-23T12:03:11.957Z,15.70
2023-05-23T12:08:18.938Z,12.00
2023-05-23T12:13:29.633Z,13.60
2023-05-23T12:18:38.849Z,15.50
2023-05-23T12:23:47.689Z,12.90
2023-05-23T12:28:55.148Z,11.80
2023-05-23T12:34:02.804Z,14.10
2023-05-23T12:39:10.504Z,16.10
2023-05-23T12:44:19.552Z,12.90
2023-05-23T12:49:26.724Z,12.80
2023-05-23T12:54:33.640Z,14.80
2023-05-23T12:59:40.577Z,13.60
2023-05-23T13:04:47.622Z,12.80
2023-05-23T13:09:56.152Z,15.60
2023-05-23T13:15:03.244Z,13.30
2023-05-23T13:20:12.197Z,13.80
2023-05-23T13:25:19.467Z,12.20
2023-05-23T13:30:27.347Z,14.70
2023-05-23T13:35:34.401Z,14.10
2023-05-23T13:40:41.652Z,11.50
2023-05-23T13:45:48.714Z,10.10
2023-05-23T13:50:55.875Z,10.20
2023-05-23T13:56:03.411Z,15.30
2023-05-23T14:01:10.572Z,14.20
2023-05-23T14:06:17.992Z,12.90
2023-05-23T14:11:24.956Z,10.90
2023-05-23T14:16:32.542Z,10.70
2023-05-23T14:21:39.787Z,11.10
2023-05-23T14:26:47.090Z,10.50
2023-05-23T14:31:54.407Z,13.10
2023-05-23T14:37:01.510Z,12.80
2023-05-23T14:42:08.895Z,11.30
2023-05-23T14:47:15.915Z,8.50
2023-05-23T14:52:22.906Z,13.10
2023-05-23T14:57:30.188Z,9.40
2023-05-23T15:02:37.511Z,10.50
2023-05-23T15:07:45.615Z,10.60
2023-05-23T15:12:52.676Z,10.70
2023-05-23T15:18:04.513Z,13.20
2023-05-23T15:23:11.496Z,10.90
2023-05-23T15:28:18.613Z,11.80
2023-05-23T15:33:25.822Z,12.40
2023-05-23T15:38:32.821Z,17.40
2023-05-23T15:43:39.830Z,11.60
2023-05-23T15:48:47.251Z,10.10
2023-05-23T15:59:04.536Z,12.30
2023-05-23T16:04:11.636Z,11.70
2023-05-23T16:09:18.736Z,9.60
2023-05-23T16:14:26.152Z,8.60
2023-05-23T16:19:33.803Z,10.00
2023-05-23T16:24:41.155Z,16.40
2023-05-23T16:29:48.138Z,8.30
2023-05-23T16:34:55.270Z,8.70
2023-05-23T16:40:02.197Z,9.80
2023-05-23T16:45:10.908Z,13.80
2023-05-23T16:50:18.180Z,9.40
2023-05-23T16:55:25.491Z,7.90
2023-05-23T17:00:32.482Z,9.90
2023-05-23T17:05:40.267Z,13.50
2023-05-23T17:10:47.889Z,9.70
2023-05-23T17:15:54.742Z,10.00
2023-05-23T17:21:01.906Z,12.40
2023-05-23T17:26:08.771Z,14.20
2023-05-23T17:31:15.796Z,12.20
2023-05-23T17:36:22.886Z,17.10
2023-05-23T17:41:29.814Z,17.50
2023-05-23T17:46:36.981Z,21.90
2023-05-23T17:51:44.038Z,17.70
2023-05-23T17:56:50.907Z,13.50
2023-05-23T18:01:57.956Z,12.50
2023-05-23T18:07:06.120Z,14.00
2023-05-23T18:12:13.141Z,13.50
2023-05-23T18:17:20.291Z,10.90
2023-05-23T18:22:27.534Z,13.30
2023-05-23T18:27:34.614Z,14.50
2023-05-23T18:32:41.707Z,13.20
2023-05-23T18:37:49.191Z,15.20
2023-05-23T18:42:56.258Z,14.20
2023-05-23T18:48:03.431Z,14.90
2023-05-23T18:53:10.768Z,16.90
2023-05-23T18:58:17.780Z,18.90
2023-05-23T19:03:24.725Z,15.50
2023-05-23T19:08:32.084Z,11.60
2023-05-23T19:13:39.041Z,11.40
2023-05-23T19:18:46.581Z,10.30
2023-05-23T19:23:53.943Z,9.50
2023-05-23T19:29:01.607Z,12.30
2023-05-23T19:34:08.899Z,12.40
2023-05-23T19:39:15.878Z,10.60
2023-05-23T19:44:25.718Z,11.90
2023-05-23T19:49:33.401Z,12.90
2023-05-23T19:54:41.088Z,13.20
2023-05-23T19:59:48.976Z,14.10
2023-05-23T20:04:56.728Z,12.70
2023-05-23T20:10:04.290Z,15.60
2023-05-23T20:15:12.712Z,15.20
2023-05-23T20:20:19.826Z,14.70
2023-05-23T20:25:28.677Z,15.00
2023-05-23T20:30:37.625Z,16.30
2023-05-23T20:35:48.403Z,16.20
2023-05-23T20:46:02.262Z,17.00
2023-05-23T20:51:09.334Z,17.50
2023-05-23T20:56:16.782Z,20.40
2023-05-23T21:01:23.813Z,17.60
2023-05-23T21:06:30.709Z,18.60
2023-05-23T21:11:37.735Z,21.80
2023-05-23T21:16:44.839Z,20.20
2023-05-23T21:21:53.325Z,22.10
2023-05-23T21:27:01.885Z,19.40
2023-05-23T21:32:09.004Z,21.40
2023-05-23T21:37:16.193Z,21.00
2023-05-23T21:42:24.818Z,21.30
2023-05-23T21:47:31.679Z,23.30
2023-05-23T21:52:38.717Z,22.30
2023-05-23T21:57:47.828Z,28.50
2023-05-23T22:02:55.173Z,25.20
2023-05-23T22:08:02.110Z,24.00
2023-05-23T22:13:09.732Z,26.80
2023-05-23T22:18:16.784Z,25.60
2023-05-23T22:23:23.738Z,24.70
2023-05-23T22:28:31.223Z,26.00
2023-05-23T22:33:38.238Z,25.60
2023-05-23T22:38:45.242Z,26.90
2023-05-23T22:43:52.240Z,27.20
2023-05-23T22:49:00.419Z,28.70
2023-05-23T22:54:07.465Z,27.30
2023-05-23T22:59:14.305Z,24.30
2023-05-23T23:04:23.686Z,25.90
2023-05-23T23:09:30.774Z,27.30
2023-05-23T23:14:37.923Z,25.60
2023-05-23T23:19:45.025Z,26.90
2023-05-23T23:24:52.747Z,27.10
2023-05-23T23:29:59.890Z,28.20
2023-05-23T23:35:07.717Z,25.00
2023-05-23T23:40:15.587Z,26.60
2023-05-23T23:45:22.776Z,26.50
2023-05-23T23:50:31.469Z,29.20
2023-05-23T23:55:38.317Z,22.00
